sensor_id;sensor_type;location;lat;lon;timestamp;P1;durP1;ratioP1;P2;durP2;ratioP2
23228;SDS011;11783;50.350;6.576;2023-05-07T00:00:20;5.68;;;2.20;;
23228;SDS011;11783;50.350;6.576;2023-05-07T00:02:46;3.70;;;1.90;;
23228;SDS011;11783;50.350;6.576;2023-05-07T00:05:11;6.25;;;2.30;;
23228;SDS011;11783;50.350;6.576;2023-05-07T00:07:37;4.45;;;1.90;;
23228;SDS011;11783;50.350;6.576;2023-05-07T00:10:03;4.72;;;2.20;;
23228;SDS011;11783;50.350;6.576;2023-05-07T00:12:29;4.97;;;2.58;;
23228;SDS011;11783;50.350;6.576;2023-05-07T00:14:58;4.65;;;2.30;;
23228;SDS011;11783;50.350;6.576;2023-05-07T00:17:25;6.10;;;2.47;;
23228;SDS011;11783;50.350;6.576;2023-05-07T00:19:50;5.30;;;2.28;;
23228;SDS011;11783;50.350;6.576;2023-05-07T00:22:15;5.43;;;2.40;;
23228;SDS011;11783;50.350;6.576;2023-05-07T00:24:41;5.28;;;2.15;;
23228;SDS011;11783;50.350;6.576;2023-05-07T00:27:06;5.45;;;2.40;;
23228;SDS011;11783;50.350;6.576;2023-05-07T00:29:31;5.03;;;2.25;;
23228;SDS011;11783;50.350;6.576;2023-05-07T00:31:57;7.85;;;2.33;;
23228;SDS011;11783;50.350;6.576;2023-05-07T00:34:22;4.55;;;2.33;;
23228;SDS011;11783;50.350;6.576;2023-05-07T00:36:47;6.13;;;2.40;;
23228;SDS011;11783;50.350;6.576;2023-05-07T00:39:13;5.05;;;2.30;;
23228;SDS011;11783;50.350;6.576;2023-05-07T00:41:38;4.93;;;2.20;;
23228;SDS011;11783;50.350;6.576;2023-05-07T00:44:04;8.15;;;2.58;;
23228;SDS011;11783;50.350;6.576;2023-05-07T00:46:29;5.40;;;2.10;;
23228;SDS011;11783;50.350;6.576;2023-05-07T00:48:56;4.47;;;1.98;;
23228;SDS011;11783;50.350;6.576;2023-05-07T00:51:22;6.63;;;1.92;;
23228;SDS011;11783;50.350;6.576;2023-05-07T00:53:49;3.72;;;1.95;;
23228;SDS011;11783;50.350;6.576;2023-05-07T00:56:15;3.28;;;1.60;;
23228;SDS011;11783;50.350;6.576;2023-05-07T00:58:41;4.07;;;1.83;;
23228;SDS011;11783;50.350;6.576;2023-05-07T01:01:06;5.32;;;2.10;;
23228;SDS011;11783;50.350;6.576;2023-05-07T01:03:32;3.75;;;2.47;;
23228;SDS011;11783;50.350;6.576;2023-05-07T01:05:58;5.13;;;1.80;;
23228;SDS011;11783;50.350;6.576;2023-05-07T01:08:25;4.72;;;1.95;;
23228;SDS011;11783;50.350;6.576;2023-05-07T01:10:53;5.85;;;1.90;;
23228;SDS011;11783;50.350;6.576;2023-05-07T01:13:20;6.80;;;2.00;;
23228;SDS011;11783;50.350;6.576;2023-05-07T01:15:46;4.72;;;1.75;;
23228;SDS011;11783;50.350;6.576;2023-05-07T01:18:11;3.92;;;1.77;;
23228;SDS011;11783;50.350;6.576;2023-05-07T01:20:37;3.65;;;1.75;;
23228;SDS011;11783;50.350;6.576;2023-05-07T01:23:03;3.80;;;1.77;;
23228;SDS011;11783;50.350;6.576;2023-05-07T01:25:28;4.07;;;1.65;;
23228;SDS011;11783;50.350;6.576;2023-05-07T01:27:55;4.82;;;2.00;;
23228;SDS011;11783;50.350;6.576;2023-05-07T01:30:20;4.20;;;1.88;;
23228;SDS011;11783;50.350;6.576;2023-05-07T01:32:56;4.85;;;1.80;;
23228;SDS011;11783;50.350;6.576;2023-05-07T01:35:28;5.65;;;1.92;;
23228;SDS011;11783;50.350;6.576;2023-05-07T01:37:57;4.53;;;2.00;;
23228;SDS011;11783;50.350;6.576;2023-05-07T01:40:23;3.00;;;1.42;;
23228;SDS011;11783;50.350;6.576;2023-05-07T01:42:49;3.78;;;2.10;;
23228;SDS011;11783;50.350;6.576;2023-05-07T01:45:15;3.33;;;1.70;;
23228;SDS011;11783;50.350;6.576;2023-05-07T01:47:41;4.50;;;2.78;;
23228;SDS011;11783;50.350;6.576;2023-05-07T01:50:07;4.55;;;2.67;;
23228;SDS011;11783;50.350;6.576;2023-05-07T01:52:35;6.22;;;3.50;;
23228;SDS011;11783;50.350;6.576;2023-05-07T01:55:02;6.00;;;2.85;;
23228;SDS011;11783;50.350;6.576;2023-05-07T01:57:28;5.75;;;3.40;;
23228;SDS011;11783;50.350;6.576;2023-05-07T01:59:54;6.97;;;3.97;;
23228;SDS011;11783;50.350;6.576;2023-05-07T02:02:19;5.45;;;3.38;;
23228;SDS011;11783;50.350;6.576;2023-05-07T02:04:44;5.50;;;3.25;;
23228;SDS011;11783;50.350;6.576;2023-05-07T02:07:10;5.60;;;2.53;;
23228;SDS011;11783;50.350;6.576;2023-05-07T02:09:35;6.18;;;2.95;;
23228;SDS011;11783;50.350;6.576;2023-05-07T02:12:01;7.80;;;2.70;;
23228;SDS011;11783;50.350;6.576;2023-05-07T02:14:26;4.70;;;2.80;;
23228;SDS011;11783;50.350;6.576;2023-05-07T02:16:52;5.57;;;2.78;;
23228;SDS011;11783;50.350;6.576;2023-05-07T02:19:17;5.28;;;2.88;;
23228;SDS011;11783;50.350;6.576;2023-05-07T02:21:43;6.13;;;2.65;;
23228;SDS011;11783;50.350;6.576;2023-05-07T02:24:08;9.45;;;3.85;;
23228;SDS011;11783;50.350;6.576;2023-05-07T02:26:34;4.47;;;2.22;;
23228;SDS011;11783;50.350;6.576;2023-05-07T02:28:59;4.57;;;2.53;;
23228;SDS011;11783;50.350;6.576;2023-05-07T02:31:25;5.25;;;2.50;;
23228;SDS011;11783;50.350;6.576;2023-05-07T02:33:50;5.75;;;2.70;;
23228;SDS011;11783;50.350;6.576;2023-05-07T02:36:16;4.55;;;2.03;;
23228;SDS011;11783;50.350;6.576;2023-05-07T02:38:41;3.67;;;2.17;;
23228;SDS011;11783;50.350;6.576;2023-05-07T02:41:06;5.43;;;2.50;;
23228;SDS011;11783;50.350;6.576;2023-05-07T02:43:32;4.22;;;2.30;;
23228;SDS011;11783;50.350;6.576;2023-05-07T02:46:07;5.75;;;1.98;;
23228;SDS011;11783;50.350;6.576;2023-05-07T02:48:33;6.13;;;2.75;;
23228;SDS011;11783;50.350;6.576;2023-05-07T02:50:59;5.03;;;2.45;;
23228;SDS011;11783;50.350;6.576;2023-05-07T02:53:25;7.38;;;2.50;;
23228;SDS011;11783;50.350;6.576;2023-05-07T02:55:52;4.47;;;2.00;;
23228;SDS011;11783;50.350;6.576;2023-05-07T02:58:21;3.33;;;1.90;;
23228;SDS011;11783;50.350;6.576;2023-05-07T03:00:46;4.45;;;1.90;;
23228;SDS011;11783;50.350;6.576;2023-05-07T03:03:12;7.43;;;2.10;;
23228;SDS011;11783;50.350;6.576;2023-05-07T03:05:38;5.00;;;2.10;;
23228;SDS011;11783;50.350;6.576;2023-05-07T03:08:04;4.45;;;1.88;;
23228;SDS011;11783;50.350;6.576;2023-05-07T03:10:30;3.28;;;1.73;;
23228;SDS011;11783;50.350;6.576;2023-05-07T03:12:55;3.42;;;1.83;;
23228;SDS011;11783;50.350;6.576;2023-05-07T03:15:21;3.40;;;2.05;;
23228;SDS011;11783;50.350;6.576;2023-05-07T03:17:47;3.88;;;2.20;;
23228;SDS011;11783;50.350;6.576;2023-05-07T03:20:13;3.60;;;1.60;;
23228;SDS011;11783;50.350;6.576;2023-05-07T03:22:38;4.28;;;1.60;;
23228;SDS011;11783;50.350;6.576;2023-05-07T03:25:04;6.15;;;2.30;;
23228;SDS011;11783;50.350;6.576;2023-05-07T03:27:30;4.25;;;1.75;;
23228;SDS011;11783;50.350;6.576;2023-05-07T03:29:55;4.97;;;1.85;;
23228;SDS011;11783;50.350;6.576;2023-05-07T03:32:20;3.20;;;1.60;;
23228;SDS011;11783;50.350;6.576;2023-05-07T03:34:46;3.13;;;1.70;;
23228;SDS011;11783;50.350;6.576;2023-05-07T03:37:11;6.28;;;1.50;;
23228;SDS011;11783;50.350;6.576;2023-05-07T03:39:37;3.33;;;1.80;;
23228;SDS011;11783;50.350;6.576;2023-05-07T03:42:02;3.90;;;2.10;;
23228;SDS011;11783;50.350;6.576;2023-05-07T03:44:28;3.60;;;2.10;;
23228;SDS011;11783;50.350;6.576;2023-05-07T03:46:54;4.07;;;2.00;;
23228;SDS011;11783;50.350;6.576;2023-05-07T03:49:20;3.80;;;2.00;;
23228;SDS011;11783;50.350;6.576;2023-05-07T03:51:45;3.58;;;1.92;;
23228;SDS011;11783;50.350;6.576;2023-05-07T03:54:11;4.47;;;2.00;;
23228;SDS011;11783;50.350;6.576;2023-05-07T03:56:36;4.78;;;1.88;;
23228;SDS011;11783;50.350;6.576;2023-05-07T03:59:02;4.50;;;2.08;;
23228;SDS011;11783;50.350;6.576;2023-05-07T04:01:27;4.13;;;1.88;;
23228;SDS011;11783;50.350;6.576;2023-05-07T04:03:53;3.28;;;1.75;;
23228;SDS011;11783;50.350;6.576;2023-05-07T04:06:18;3.00;;;1.70;;
23228;SDS011;11783;50.350;6.576;2023-05-07T04:08:44;2.88;;;1.75;;
23228;SDS011;11783;50.350;6.576;2023-05-07T04:11:09;3.03;;;1.73;;
23228;SDS011;11783;50.350;6.576;2023-05-07T04:13:35;2.47;;;1.50;;
23228;SDS011;11783;50.350;6.576;2023-05-07T04:16:04;4.35;;;1.70;;
23228;SDS011;11783;50.350;6.576;2023-05-07T04:18:30;5.47;;;1.77;;
23228;SDS011;11783;50.350;6.576;2023-05-07T04:20:55;3.40;;;1.80;;
23228;SDS011;11783;50.350;6.576;2023-05-07T04:23:21;4.47;;;1.85;;
23228;SDS011;11783;50.350;6.576;2023-05-07T04:25:46;8.13;;;1.70;;
23228;SDS011;11783;50.350;6.576;2023-05-07T04:28:12;5.18;;;1.90;;
23228;SDS011;11783;50.350;6.576;2023-05-07T04:30:37;3.63;;;1.60;;
23228;SDS011;11783;50.350;6.576;2023-05-07T04:33:03;4.90;;;1.98;;
23228;SDS011;11783;50.350;6.576;2023-05-07T04:35:29;4.88;;;1.75;;
23228;SDS011;11783;50.350;6.576;2023-05-07T04:37:54;6.10;;;2.00;;
23228;SDS011;11783;50.350;6.576;2023-05-07T04:40:20;3.15;;;1.50;;
23228;SDS011;11783;50.350;6.576;2023-05-07T04:42:45;5.00;;;1.67;;
23228;SDS011;11783;50.350;6.576;2023-05-07T04:45:11;4.47;;;1.63;;
23228;SDS011;11783;50.350;6.576;2023-05-07T04:47:37;3.60;;;1.83;;
23228;SDS011;11783;50.350;6.576;2023-05-07T04:50:03;2.78;;;1.48;;
23228;SDS011;11783;50.350;6.576;2023-05-07T04:52:29;2.95;;;1.38;;
23228;SDS011;11783;50.350;6.576;2023-05-07T04:54:55;2.58;;;1.20;;
23228;SDS011;11783;50.350;6.576;2023-05-07T04:57:20;3.97;;;1.50;;
23228;SDS011;11783;50.350;6.576;2023-05-07T04:59:46;2.58;;;1.20;;
23228;SDS011;11783;50.350;6.576;2023-05-07T05:02:11;3.00;;;1.45;;
23228;SDS011;11783;50.350;6.576;2023-05-07T05:04:36;3.53;;;1.33;;
23228;SDS011;11783;50.350;6.576;2023-05-07T05:07:02;5.40;;;1.40;;
23228;SDS011;11783;50.350;6.576;2023-05-07T05:09:29;4.55;;;1.50;;
23228;SDS011;11783;50.350;6.576;2023-05-07T05:11:54;4.75;;;1.52;;
23228;SDS011;11783;50.350;6.576;2023-05-07T05:14:20;3.03;;;1.50;;
23228;SDS011;11783;50.350;6.576;2023-05-07T05:16:46;3.70;;;1.70;;
23228;SDS011;11783;50.350;6.576;2023-05-07T05:19:11;3.22;;;1.60;;
23228;SDS011;11783;50.350;6.576;2023-05-07T05:21:37;6.40;;;1.67;;
23228;SDS011;11783;50.350;6.576;2023-05-07T05:24:03;4.93;;;1.50;;
23228;SDS011;11783;50.350;6.576;2023-05-07T05:26:29;6.18;;;1.70;;
23228;SDS011;11783;50.350;6.576;2023-05-07T05:28:54;3.40;;;1.75;;
23228;SDS011;11783;50.350;6.576;2023-05-07T05:31:20;4.03;;;1.45;;
23228;SDS011;11783;50.350;6.576;2023-05-07T05:33:46;4.95;;;1.67;;
23228;SDS011;11783;50.350;6.576;2023-05-07T05:36:11;3.15;;;1.40;;
23228;SDS011;11783;50.350;6.576;2023-05-07T05:38:38;3.45;;;1.48;;
23228;SDS011;11783;50.350;6.576;2023-05-07T05:41:04;3.05;;;1.30;;
23228;SDS011;11783;50.350;6.576;2023-05-07T05:43:29;4.97;;;1.67;;
23228;SDS011;11783;50.350;6.576;2023-05-07T05:45:55;3.33;;;1.60;;
23228;SDS011;11783;50.350;6.576;2023-05-07T05:48:21;4.03;;;1.70;;
23228;SDS011;11783;50.350;6.576;2023-05-07T05:50:46;2.78;;;1.60;;
23228;SDS011;11783;50.350;6.576;2023-05-07T05:53:12;3.45;;;1.50;;
23228;SDS011;11783;50.350;6.576;2023-05-07T05:55:37;2.72;;;1.50;;
23228;SDS011;11783;50.350;6.576;2023-05-07T05:58:02;4.80;;;1.73;;
23228;SDS011;11783;50.350;6.576;2023-05-07T06:00:28;2.95;;;1.60;;
23228;SDS011;11783;50.350;6.576;2023-05-07T06:02:54;5.43;;;1.73;;
23228;SDS011;11783;50.350;6.576;2023-05-07T06:05:20;4.45;;;2.05;;
23228;SDS011;11783;50.350;6.576;2023-05-07T06:07:45;15.00;;;7.20;;
23228;SDS011;11783;50.350;6.576;2023-05-07T06:10:11;8.52;;;3.70;;
23228;SDS011;11783;50.350;6.576;2023-05-07T06:12:36;4.53;;;2.58;;
23228;SDS011;11783;50.350;6.576;2023-05-07T06:15:02;6.30;;;3.28;;
23228;SDS011;11783;50.350;6.576;2023-05-07T06:17:28;4.53;;;1.90;;
23228;SDS011;11783;50.350;6.576;2023-05-07T06:19:53;5.28;;;1.63;;
23228;SDS011;11783;50.350;6.576;2023-05-07T06:22:18;5.28;;;1.90;;
23228;SDS011;11783;50.350;6.576;2023-05-07T06:24:44;3.67;;;1.98;;
23228;SDS011;11783;50.350;6.576;2023-05-07T06:27:09;3.30;;;1.90;;
23228;SDS011;11783;50.350;6.576;2023-05-07T06:29:35;4.70;;;1.75;;
23228;SDS011;11783;50.350;6.576;2023-05-07T06:32:10;5.47;;;1.90;;
23228;SDS011;11783;50.350;6.576;2023-05-07T06:34:36;4.50;;;1.90;;
23228;SDS011;11783;50.350;6.576;2023-05-07T06:37:02;3.88;;;1.90;;
23228;SDS011;11783;50.350;6.576;2023-05-07T06:39:27;5.40;;;2.40;;
23228;SDS011;11783;50.350;6.576;2023-05-07T06:41:53;4.43;;;2.10;;
23228;SDS011;11783;50.350;6.576;2023-05-07T06:44:18;4.97;;;2.17;;
23228;SDS011;11783;50.350;6.576;2023-05-07T06:46:44;5.15;;;1.85;;
23228;SDS011;11783;50.350;6.576;2023-05-07T06:49:10;3.00;;;1.70;;
23228;SDS011;11783;50.350;6.576;2023-05-07T06:51:36;4.03;;;2.05;;
23228;SDS011;11783;50.350;6.576;2023-05-07T06:54:01;4.25;;;1.70;;
23228;SDS011;11783;50.350;6.576;2023-05-07T06:56:27;4.00;;;1.85;;
23228;SDS011;11783;50.350;6.576;2023-05-07T06:58:52;2.90;;;1.77;;
23228;SDS011;11783;50.350;6.576;2023-05-07T07:01:17;3.67;;;1.90;;
23228;SDS011;11783;50.350;6.576;2023-05-07T07:03:43;4.03;;;1.95;;
23228;SDS011;11783;50.350;6.576;2023-05-07T07:06:08;2.95;;;1.80;;
23228;SDS011;11783;50.350;6.576;2023-05-07T07:08:34;4.05;;;2.00;;
23228;SDS011;11783;50.350;6.576;2023-05-07T07:10:59;3.70;;;1.67;;
23228;SDS011;11783;50.350;6.576;2023-05-07T07:13:25;4.97;;;2.13;;
23228;SDS011;11783;50.350;6.576;2023-05-07T07:15:51;4.25;;;1.67;;
23228;SDS011;11783;50.350;6.576;2023-05-07T07:18:17;4.78;;;2.10;;
23228;SDS011;11783;50.350;6.576;2023-05-07T07:20:43;3.45;;;1.85;;
23228;SDS011;11783;50.350;6.576;2023-05-07T07:23:09;6.28;;;2.10;;
23228;SDS011;11783;50.350;6.576;2023-05-07T07:25:35;3.83;;;1.83;;
23228;SDS011;11783;50.350;6.576;2023-05-07T07:28:00;4.03;;;2.13;;
23228;SDS011;11783;50.350;6.576;2023-05-07T07:30:26;5.47;;;1.80;;
23228;SDS011;11783;50.350;6.576;2023-05-07T07:32:51;5.05;;;1.90;;
23228;SDS011;11783;50.350;6.576;2023-05-07T07:35:17;4.38;;;2.20;;
23228;SDS011;11783;50.350;6.576;2023-05-07T07:37:43;5.80;;;1.65;;
23228;SDS011;11783;50.350;6.576;2023-05-07T07:40:08;5.18;;;1.98;;
23228;SDS011;11783;50.350;6.576;2023-05-07T07:42:34;4.82;;;1.90;;
23228;SDS011;11783;50.350;6.576;2023-05-07T07:45:00;5.05;;;1.55;;
23228;SDS011;11783;50.350;6.576;2023-05-07T07:47:25;3.83;;;1.60;;
23228;SDS011;11783;50.350;6.576;2023-05-07T07:49:51;3.45;;;1.60;;
23228;SDS011;11783;50.350;6.576;2023-05-07T07:52:16;4.35;;;1.70;;
23228;SDS011;11783;50.350;6.576;2023-05-07T07:54:41;4.75;;;1.60;;
23228;SDS011;11783;50.350;6.576;2023-05-07T07:57:07;4.38;;;1.83;;
23228;SDS011;11783;50.350;6.576;2023-05-07T07:59:34;5.05;;;1.90;;
23228;SDS011;11783;50.350;6.576;2023-05-07T08:01:59;5.05;;;1.70;;
23228;SDS011;11783;50.350;6.576;2023-05-07T08:04:24;3.35;;;1.60;;
23228;SDS011;11783;50.350;6.576;2023-05-07T08:06:50;3.90;;;1.98;;
23228;SDS011;11783;50.350;6.576;2023-05-07T08:09:15;5.40;;;1.90;;
23228;SDS011;11783;50.350;6.576;2023-05-07T08:11:41;4.18;;;2.08;;
23228;SDS011;11783;50.350;6.576;2023-05-07T08:14:06;3.40;;;1.88;;
23228;SDS011;11783;50.350;6.576;2023-05-07T08:16:31;3.92;;;1.77;;
23228;SDS011;11783;50.350;6.576;2023-05-07T08:18:57;5.20;;;1.88;;
23228;SDS011;11783;50.350;6.576;2023-05-07T08:21:22;4.05;;;1.85;;
23228;SDS011;11783;50.350;6.576;2023-05-07T08:23:48;4.10;;;1.77;;
23228;SDS011;11783;50.350;6.576;2023-05-07T08:26:14;3.35;;;1.77;;
23228;SDS011;11783;50.350;6.576;2023-05-07T08:28:39;4.90;;;2.00;;
23228;SDS011;11783;50.350;6.576;2023-05-07T08:31:05;4.50;;;1.83;;
23228;SDS011;11783;50.350;6.576;2023-05-07T08:33:30;4.47;;;2.00;;
23228;SDS011;11783;50.350;6.576;2023-05-07T08:35:56;3.83;;;1.90;;
23228;SDS011;11783;50.350;6.576;2023-05-07T08:38:21;3.13;;;1.65;;
23228;SDS011;11783;50.350;6.576;2023-05-07T08:40:47;5.38;;;1.90;;
23228;SDS011;11783;50.350;6.576;2023-05-07T08:43:13;3.55;;;1.52;;
23228;SDS011;11783;50.350;6.576;2023-05-07T08:45:42;5.10;;;2.13;;
23228;SDS011;11783;50.350;6.576;2023-05-07T08:48:14;3.70;;;1.52;;
23228;SDS011;11783;50.350;6.576;2023-05-07T08:50:41;5.18;;;1.55;;
23228;SDS011;11783;50.350;6.576;2023-05-07T08:53:06;3.47;;;1.33;;
23228;SDS011;11783;50.350;6.576;2023-05-07T08:55:32;3.35;;;1.50;;
23228;SDS011;11783;50.350;6.576;2023-05-07T08:57:58;5.10;;;1.48;;
23228;SDS011;11783;50.350;6.576;2023-05-07T09:00:24;2.75;;;1.45;;
23228;SDS011;11783;50.350;6.576;2023-05-07T09:02:50;4.97;;;1.50;;
23228;SDS011;11783;50.350;6.576;2023-05-07T09:05:15;2.45;;;1.20;;
23228;SDS011;11783;50.350;6.576;2023-05-07T09:07:41;4.07;;;1.20;;
23228;SDS011;11783;50.350;6.576;2023-05-07T09:10:06;4.05;;;1.30;;
23228;SDS011;11783;50.350;6.576;2023-05-07T09:12:32;2.80;;;1.13;;
23228;SDS011;11783;50.350;6.576;2023-05-07T09:15:00;3.35;;;1.00;;
23228;SDS011;11783;50.350;6.576;2023-05-07T09:17:25;2.47;;;1.00;;
23228;SDS011;11783;50.350;6.576;2023-05-07T09:19:51;2.88;;;1.02;;
23228;SDS011;11783;50.350;6.576;2023-05-07T09:22:18;2.10;;;0.80;;
23228;SDS011;11783;50.350;6.576;2023-05-07T09:24:50;3.90;;;1.17;;
23228;SDS011;11783;50.350;6.576;2023-05-07T09:27:16;3.20;;;1.20;;
23228;SDS011;11783;50.350;6.576;2023-05-07T09:29:43;4.38;;;1.10;;
23228;SDS011;11783;50.350;6.576;2023-05-07T09:32:08;3.75;;;1.02;;
23228;SDS011;11783;50.350;6.576;2023-05-07T09:34:35;2.92;;;1.15;;
23228;SDS011;11783;50.350;6.576;2023-05-07T09:37:05;2.88;;;0.80;;
23228;SDS011;11783;50.350;6.576;2023-05-07T09:39:43;4.53;;;1.10;;
23228;SDS011;11783;50.350;6.576;2023-05-07T09:42:13;3.15;;;1.33;;
23228;SDS011;11783;50.350;6.576;2023-05-07T09:44:43;2.85;;;0.90;;
23228;SDS011;11783;50.350;6.576;2023-05-07T09:47:09;5.18;;;1.23;;
23228;SDS011;11783;50.350;6.576;2023-05-07T09:49:37;2.63;;;1.00;;
23228;SDS011;11783;50.350;6.576;2023-05-07T09:52:05;3.95;;;1.00;;
23228;SDS011;11783;50.350;6.576;2023-05-07T09:54:33;3.22;;;1.20;;
23228;SDS011;11783;50.350;6.576;2023-05-07T09:57:03;3.00;;;1.00;;
23228;SDS011;11783;50.350;6.576;2023-05-07T09:59:31;2.50;;;1.35;;
23228;SDS011;11783;50.350;6.576;2023-05-07T10:01:58;3.55;;;1.33;;
23228;SDS011;11783;50.350;6.576;2023-05-07T10:04:27;4.03;;;1.20;;
23228;SDS011;11783;50.350;6.576;2023-05-07T10:06:53;2.80;;;1.02;;
23228;SDS011;11783;50.350;6.576;2023-05-07T10:09:20;3.90;;;1.15;;
23228;SDS011;11783;50.350;6.576;2023-05-07T10:11:47;1.98;;;1.00;;
23228;SDS011;11783;50.350;6.576;2023-05-07T10:14:14;2.40;;;0.93;;
23228;SDS011;11783;50.350;6.576;2023-05-07T10:16:39;3.80;;;1.30;;
23228;SDS011;11783;50.350;6.576;2023-05-07T10:19:06;2.90;;;1.10;;
23228;SDS011;11783;50.350;6.576;2023-05-07T10:21:38;2.33;;;1.23;;
23228;SDS011;11783;50.350;6.576;2023-05-07T10:24:09;5.15;;;1.25;;
23228;SDS011;11783;50.350;6.576;2023-05-07T10:26:42;4.28;;;1.30;;
23228;SDS011;11783;50.350;6.576;2023-05-07T10:29:12;2.60;;;1.20;;
23228;SDS011;11783;50.350;6.576;2023-05-07T10:32:07;4.05;;;1.15;;
23228;SDS011;11783;50.350;6.576;2023-05-07T10:34:43;3.22;;;1.20;;
23228;SDS011;11783;50.350;6.576;2023-05-07T10:37:12;3.38;;;1.10;;
23228;SDS011;11783;50.350;6.576;2023-05-07T10:39:38;5.65;;;1.40;;
23228;SDS011;11783;50.350;6.576;2023-05-07T10:42:10;3.95;;;1.33;;
23228;SDS011;11783;50.350;6.576;2023-05-07T10:44:36;2.35;;;1.20;;
23228;SDS011;11783;50.350;6.576;2023-05-07T10:47:06;3.80;;;1.33;;
23228;SDS011;11783;50.350;6.576;2023-05-07T10:49:33;2.97;;;1.02;;
23228;SDS011;11783;50.350;6.576;2023-05-07T10:52:18;2.97;;;1.00;;
23228;SDS011;11783;50.350;6.576;2023-05-07T10:54:46;3.03;;;1.10;;
23228;SDS011;11783;50.350;6.576;2023-05-07T10:59:58;3.83;;;1.02;;
23228;SDS011;11783;50.350;6.576;2023-05-07T11:02:23;2.72;;;0.93;;
23228;SDS011;11783;50.350;6.576;2023-05-07T11:05:23;2.90;;;1.10;;
23228;SDS011;11783;50.350;6.576;2023-05-07T11:13:42;2.42;;;1.10;;
23228;SDS011;11783;50.350;6.576;2023-05-07T11:16:21;2.25;;;1.08;;
23228;SDS011;11783;50.350;6.576;2023-05-07T11:24:10;2.85;;;1.10;;
23228;SDS011;11783;50.350;6.576;2023-05-07T11:29:18;2.33;;;1.20;;
23228;SDS011;11783;50.350;6.576;2023-05-07T11:31:52;2.53;;;1.00;;
23228;SDS011;11783;50.350;6.576;2023-05-07T11:34:22;6.70;;;1.13;;
23228;SDS011;11783;50.350;6.576;2023-05-07T11:36:49;3.67;;;1.25;;
23228;SDS011;11783;50.350;6.576;2023-05-07T11:39:25;3.08;;;1.23;;
23228;SDS011;11783;50.350;6.576;2023-05-07T11:41:51;2.08;;;0.98;;
23228;SDS011;11783;50.350;6.576;2023-05-07T11:44:17;3.10;;;1.15;;
23228;SDS011;11783;50.350;6.576;2023-05-07T11:46:43;3.17;;;1.10;;
23228;SDS011;11783;50.350;6.576;2023-05-07T11:49:11;3.88;;;1.00;;
23228;SDS011;11783;50.350;6.576;2023-05-07T11:51:37;3.00;;;1.00;;
23228;SDS011;11783;50.350;6.576;2023-05-07T11:54:04;2.03;;;1.10;;
23228;SDS011;11783;50.350;6.576;2023-05-07T11:56:33;3.58;;;0.98;;
23228;SDS011;11783;50.350;6.576;2023-05-07T11:59:00;2.78;;;0.98;;
23228;SDS011;11783;50.350;6.576;2023-05-07T12:01:26;2.45;;;1.00;;
23228;SDS011;11783;50.350;6.576;2023-05-07T12:03:51;2.05;;;0.90;;
23228;SDS011;11783;50.350;6.576;2023-05-07T12:06:17;3.75;;;1.08;;
23228;SDS011;11783;50.350;6.576;2023-05-07T12:08:43;5.25;;;0.95;;
23228;SDS011;11783;50.350;6.576;2023-05-07T12:11:14;2.25;;;1.10;;
23228;SDS011;11783;50.350;6.576;2023-05-07T12:13:42;2.33;;;1.00;;
23228;SDS011;11783;50.350;6.576;2023-05-07T12:16:08;2.63;;;1.00;;
23228;SDS011;11783;50.350;6.576;2023-05-07T12:18:34;2.95;;;0.88;;
23228;SDS011;11783;50.350;6.576;2023-05-07T12:21:01;2.63;;;1.10;;
23228;SDS011;11783;50.350;6.576;2023-05-07T12:23:28;3.35;;;1.08;;
23228;SDS011;11783;50.350;6.576;2023-05-07T12:25:53;4.03;;;1.23;;
23228;SDS011;11783;50.350;6.576;2023-05-07T12:28:19;2.20;;;1.13;;
23228;SDS011;11783;50.350;6.576;2023-05-07T12:30:45;1.85;;;0.95;;
23228;SDS011;11783;50.350;6.576;2023-05-07T12:33:13;4.05;;;1.08;;
23228;SDS011;11783;50.350;6.576;2023-05-07T12:35:48;2.33;;;1.00;;
23228;SDS011;11783;50.350;6.576;2023-05-07T12:38:14;3.30;;;1.08;;
23228;SDS011;11783;50.350;6.576;2023-05-07T12:40:45;3.67;;;1.10;;
23228;SDS011;11783;50.350;6.576;2023-05-07T12:45:46;2.55;;;0.93;;
23228;SDS011;11783;50.350;6.576;2023-05-07T12:48:13;3.10;;;1.00;;
23228;SDS011;11783;50.350;6.576;2023-05-07T12:50:39;2.28;;;1.38;;
23228;SDS011;11783;50.350;6.576;2023-05-07T12:53:05;2.80;;;1.17;;
23228;SDS011;11783;50.350;6.576;2023-05-07T12:55:39;2.17;;;1.00;;
23228;SDS011;11783;50.350;6.576;2023-05-07T12:58:13;2.33;;;0.93;;
23228;SDS011;11783;50.350;6.576;2023-05-07T13:00:42;2.22;;;0.93;;
23228;SDS011;11783;50.350;6.576;2023-05-07T13:03:08;2.22;;;1.00;;
23228;SDS011;11783;50.350;6.576;2023-05-07T13:05:34;2.67;;;1.10;;
23228;SDS011;11783;50.350;6.576;2023-05-07T13:08:00;4.80;;;1.40;;
23228;SDS011;11783;50.350;6.576;2023-05-07T13:10:26;5.22;;;1.48;;
23228;SDS011;11783;50.350;6.576;2023-05-07T13:12:52;4.18;;;1.42;;
23228;SDS011;11783;50.350;6.576;2023-05-07T13:15:17;3.40;;;1.50;;
23228;SDS011;11783;50.350;6.576;2023-05-07T13:17:43;2.92;;;1.27;;
23228;SDS011;11783;50.350;6.576;2023-05-07T13:20:09;3.70;;;1.50;;
23228;SDS011;11783;50.350;6.576;2023-05-07T13:22:36;5.22;;;1.80;;
23228;SDS011;11783;50.350;6.576;2023-05-07T13:25:02;5.80;;;1.83;;
23228;SDS011;11783;50.350;6.576;2023-05-07T13:27:27;4.57;;;1.50;;
23228;SDS011;11783;50.350;6.576;2023-05-07T13:29:53;4.78;;;1.60;;
23228;SDS011;11783;50.350;6.576;2023-05-07T13:32:18;3.53;;;1.60;;
23228;SDS011;11783;50.350;6.576;2023-05-07T13:34:43;3.60;;;1.80;;
23228;SDS011;11783;50.350;6.576;2023-05-07T13:37:09;3.65;;;1.65;;
23228;SDS011;11783;50.350;6.576;2023-05-07T13:39:34;5.18;;;2.05;;
23228;SDS011;11783;50.350;6.576;2023-05-07T13:42:00;3.85;;;1.90;;
23228;SDS011;11783;50.350;6.576;2023-05-07T13:44:26;5.97;;;2.30;;
23228;SDS011;11783;50.350;6.576;2023-05-07T13:46:51;5.35;;;2.30;;
23228;SDS011;11783;50.350;6.576;2023-05-07T13:49:17;3.25;;;1.70;;
23228;SDS011;11783;50.350;6.576;2023-05-07T13:51:42;4.82;;;1.75;;
23228;SDS011;11783;50.350;6.576;2023-05-07T13:54:07;3.92;;;1.60;;
23228;SDS011;11783;50.350;6.576;2023-05-07T13:56:33;3.88;;;1.75;;
23228;SDS011;11783;50.350;6.576;2023-05-07T13:58:58;4.40;;;2.15;;
23228;SDS011;11783;50.350;6.576;2023-05-07T14:01:24;4.18;;;1.70;;
23228;SDS011;11783;50.350;6.576;2023-05-07T14:03:49;3.38;;;1.83;;
23228;SDS011;11783;50.350;6.576;2023-05-07T14:06:15;3.60;;;1.55;;
23228;SDS011;11783;50.350;6.576;2023-05-07T14:08:40;3.42;;;1.60;;
23228;SDS011;11783;50.350;6.576;2023-05-07T14:11:06;4.43;;;1.80;;
23228;SDS011;11783;50.350;6.576;2023-05-07T14:13:31;4.65;;;1.63;;
23228;SDS011;11783;50.350;6.576;2023-05-07T14:15:57;4.05;;;1.83;;
23228;SDS011;11783;50.350;6.576;2023-05-07T14:18:23;4.32;;;1.98;;
23228;SDS011;11783;50.350;6.576;2023-05-07T14:20:48;4.03;;;1.80;;
23228;SDS011;11783;50.350;6.576;2023-05-07T14:23:14;3.55;;;1.63;;
23228;SDS011;11783;50.350;6.576;2023-05-07T14:25:40;4.03;;;1.80;;
23228;SDS011;11783;50.350;6.576;2023-05-07T14:28:06;4.03;;;1.80;;
23228;SDS011;11783;50.350;6.576;2023-05-07T14:30:31;3.13;;;1.60;;
23228;SDS011;11783;50.350;6.576;2023-05-07T14:32:57;7.72;;;2.10;;
23228;SDS011;11783;50.350;6.576;2023-05-07T14:35:22;5.15;;;1.60;;
23228;SDS011;11783;50.350;6.576;2023-05-07T14:37:48;4.75;;;1.90;;
23228;SDS011;11783;50.350;6.576;2023-05-07T14:40:13;7.38;;;2.05;;
23228;SDS011;11783;50.350;6.576;2023-05-07T14:42:39;7.55;;;2.05;;
23228;SDS011;11783;50.350;6.576;2023-05-07T14:45:05;8.20;;;2.13;;
23228;SDS011;11783;50.350;6.576;2023-05-07T14:47:31;7.85;;;2.55;;
23228;SDS011;11783;50.350;6.576;2023-05-07T14:49:56;4.45;;;2.28;;
23228;SDS011;11783;50.350;6.576;2023-05-07T14:52:22;8.85;;;2.80;;
23228;SDS011;11783;50.350;6.576;2023-05-07T14:54:48;7.85;;;2.47;;
23228;SDS011;11783;50.350;6.576;2023-05-07T14:57:13;8.75;;;2.67;;
23228;SDS011;11783;50.350;6.576;2023-05-07T14:59:41;7.68;;;2.72;;
23228;SDS011;11783;50.350;6.576;2023-05-07T15:02:07;13.65;;;2.78;;